Terminal Aerodrome Forecast
Issued by NWS Jacksonville, FL

Home | Current Version | Previous Version | Text Only | Print | Product List | Glossary On
Versions: 1 2 3 4 5 6 7 8 9 10 11 12 13 14 15 16 17 18
000
FTUS42 KJAX 031723
TAFSSI
TAF
KSSI 031723Z 0318/0418 04012KT P6SM FEW035 BKN120
     FM040200 04007KT P6SM SCT030 BKN080
     FM040700 04007KT P6SM BKN025 BKN080
     FM041400 08011KT P6SM SCT030 BKN080=

USA.gov is the U.S. government's official web portal to all federal, state and local government web resources and services.